createdAt,value
2019-03-08T00:01:59.880Z,6.53
2019-03-08T00:04:26.678Z,6.48
2019-03-08T00:06:53.620Z,6.51
2019-03-08T00:09:20.415Z,6.50
2019-03-08T00:11:47.155Z,6.54
2019-03-08T00:14:13.893Z,6.59
2019-03-08T00:16:40.591Z,6.63
2019-03-08T00:19:07.196Z,6.67
2019-03-08T00:21:34.016Z,6.78
2019-03-08T00:24:00.824Z,6.86
2019-03-08T00:26:28.037Z,6.92
2019-03-08T00:28:55.246Z,7.01
2019-03-08T00:31:21.987Z,7.15
2019-03-08T00:33:48.997Z,7.17
2019-03-08T00:36:15.740Z,7.18
2019-03-08T00:38:42.446Z,7.19
2019-03-08T00:41:09.166Z,7.19
2019-03-08T00:43:35.891Z,7.24
2019-03-08T00:46:02.606Z,7.35
2019-03-08T00:48:29.207Z,7.32
2019-03-08T00:50:55.851Z,7.21
2019-03-08T00:53:22.544Z,7.25
2019-03-08T00:55:49.376Z,7.24
2019-03-08T00:58:16.102Z,7.21
2019-03-08T01:00:42.817Z,7.06
2019-03-08T01:03:09.444Z,7.04
2019-03-08T01:05:36.080Z,6.96
2019-03-08T01:08:02.997Z,6.88
2019-03-08T01:10:29.718Z,6.84
2019-03-08T01:12:56.662Z,6.81
2019-03-08T01:15:23.389Z,6.71
2019-03-08T01:17:50.212Z,6.70
2019-03-08T01:20:17.259Z,6.64
2019-03-08T01:22:43.987Z,6.61
2019-03-08T01:25:11.117Z,6.62
2019-03-08T01:28:14.849Z,6.62
2019-03-08T01:30:42.248Z,6.64
2019-03-08T01:33:09.801Z,6.61
2019-03-08T01:35:36.638Z,6.57
2019-03-08T01:38:03.968Z,6.63
2019-03-08T01:40:30.793Z,6.66
2019-03-08T01:42:57.533Z,6.56
2019-03-08T01:45:24.274Z,6.58
2019-03-08T01:47:51.330Z,6.58
2019-03-08T01:50:18.134Z,6.58
2019-03-08T01:52:45.288Z,6.50
2019-03-08T01:55:12.260Z,6.49
2019-03-08T01:57:39.075Z,6.56
2019-03-08T02:00:08.305Z,6.51
2019-03-08T02:02:35.052Z,6.46
2019-03-08T02:05:01.849Z,6.44
2019-03-08T02:07:28.665Z,6.42
2019-03-08T02:09:55.325Z,6.36
2019-03-08T02:12:21.927Z,6.34
2019-03-08T02:14:48.632Z,6.23
2019-03-08T02:17:15.298Z,6.21
2019-03-08T02:19:41.993Z,6.10
2019-03-08T02:22:08.608Z,5.97
2019-03-08T02:24:35.324Z,5.93
2019-03-08T02:27:01.929Z,5.91
2019-03-08T02:29:28.537Z,5.87
2019-03-08T02:31:55.171Z,5.93
2019-03-08T02:34:21.786Z,5.82
2019-03-08T02:36:48.606Z,5.85
2019-03-08T02:39:15.347Z,5.85
2019-03-08T02:41:42.255Z,5.87
2019-03-08T02:44:08.859Z,5.87
2019-03-08T02:46:35.504Z,5.96
2019-03-08T02:49:02.196Z,5.93
2019-03-08T02:51:28.934Z,5.96
2019-03-08T02:53:55.556Z,5.88
2019-03-08T02:56:22.172Z,5.94
2019-03-08T02:58:48.885Z,5.99
2019-03-08T03:01:15.740Z,5.95
2019-03-08T03:03:42.356Z,5.96
2019-03-08T03:06:09.108Z,5.95
2019-03-08T03:08:35.822Z,6.01
2019-03-08T03:11:02.520Z,5.95
2019-03-08T03:13:29.128Z,6.01
2019-03-08T03:15:55.750Z,6.09
2019-03-08T03:18:22.455Z,6.13
2019-03-08T03:20:49.056Z,6.17
2019-03-08T03:23:15.677Z,6.18
2019-03-08T03:25:42.512Z,6.19
2019-03-08T03:28:09.235Z,6.24
2019-03-08T03:30:35.959Z,6.18
2019-03-08T03:33:02.837Z,6.17
2019-03-08T03:35:29.926Z,6.19
2019-03-08T03:37:56.555Z,6.21
2019-03-08T03:40:23.150Z,6.21
2019-03-08T03:42:49.777Z,6.18
2019-03-08T03:45:17.651Z,6.20
2019-03-08T03:47:44.277Z,6.21
2019-03-08T03:50:11.114Z,6.11
2019-03-08T03:52:38.247Z,6.19
2019-03-08T03:55:05.325Z,6.24
2019-03-08T03:57:32.048Z,6.25
2019-03-08T03:59:58.671Z,6.26
2019-03-08T04:02:25.278Z,6.25
2019-03-08T04:04:51.883Z,6.26
2019-03-08T04:07:18.535Z,6.27
2019-03-08T04:09:45.338Z,6.30
2019-03-08T04:12:12.101Z,6.27
2019-03-08T04:14:38.808Z,6.27
2019-03-08T04:17:05.430Z,6.27
2019-03-08T04:19:32.126Z,6.29
2019-03-08T04:21:58.760Z,6.31
2019-03-08T04:24:25.560Z,6.29
2019-03-08T04:26:52.535Z,6.32
2019-03-08T04:29:19.358Z,6.36
2019-03-08T04:31:46.054Z,6.34
2019-03-08T04:34:12.680Z,6.41
2019-03-08T04:36:39.430Z,6.33
2019-03-08T04:39:07.703Z,6.38
2019-03-08T04:41:34.299Z,6.39
2019-03-08T04:44:01.332Z,6.41
2019-03-08T04:46:27.947Z,6.38
2019-03-08T04:48:54.873Z,6.39
2019-03-08T04:51:21.884Z,6.41
2019-03-08T04:53:48.480Z,6.39
2019-03-08T04:56:15.069Z,6.39
2019-03-08T04:58:41.813Z,6.44
2019-03-08T05:01:08.417Z,6.46
2019-03-08T05:03:35.037Z,6.42
2019-03-08T05:06:01.676Z,6.45
2019-03-08T05:08:28.281Z,6.42
2019-03-08T05:10:54.886Z,6.42
2019-03-08T05:13:21.834Z,6.42
2019-03-08T05:15:48.442Z,6.37
2019-03-08T05:18:15.151Z,6.39
2019-03-08T05:20:41.779Z,6.48
2019-03-08T05:23:08.393Z,6.41
2019-03-08T05:25:35.087Z,6.44
2019-03-08T05:28:01.716Z,6.43
2019-03-08T05:30:28.323Z,6.46
2019-03-08T05:32:54.947Z,6.46
2019-03-08T05:35:21.559Z,6.41
2019-03-08T05:37:48.680Z,6.38
2019-03-08T05:40:15.545Z,6.38
2019-03-08T05:42:42.391Z,6.43
2019-03-08T05:45:10.543Z,6.37
2019-03-08T05:47:37.348Z,6.39
2019-03-08T05:50:04.110Z,6.33
2019-03-08T05:52:30.738Z,6.31
2019-03-08T05:54:57.629Z,6.28
2019-03-08T05:57:24.428Z,6.37
2019-03-08T05:59:51.026Z,6.33
2019-03-08T06:02:17.717Z,6.25
2019-03-08T06:04:44.469Z,6.20
2019-03-08T06:07:11.136Z,6.17
2019-03-08T06:09:37.778Z,6.21
2019-03-08T06:12:04.514Z,6.22
2019-03-08T06:14:31.228Z,6.12
2019-03-08T06:16:57.955Z,6.14
2019-03-08T06:19:24.583Z,6.09
2019-03-08T06:21:51.220Z,6.18
2019-03-08T06:24:18.134Z,6.17
2019-03-08T06:26:44.868Z,6.22
2019-03-08T06:29:11.660Z,6.21
2019-03-08T06:31:38.588Z,6.30
2019-03-08T06:34:05.256Z,6.37
2019-03-08T06:36:31.927Z,6.29
2019-03-08T06:38:58.561Z,6.35
2019-03-08T06:41:25.261Z,6.31
2019-03-08T06:43:52.020Z,6.32
2019-03-08T06:46:18.619Z,6.32
2019-03-08T06:48:45.254Z,6.37
2019-03-08T06:51:11.974Z,6.34
2019-03-08T06:53:38.592Z,6.38
2019-03-08T06:56:05.210Z,6.42
2019-03-08T06:58:37.812Z,6.41
2019-03-08T07:01:06.089Z,6.33
2019-03-08T07:03:32.901Z,6.38
2019-03-08T07:05:59.487Z,6.42
2019-03-08T07:08:26.236Z,6.42
2019-03-08T07:10:53.116Z,6.37
2019-03-08T07:13:19.808Z,6.41
2019-03-08T07:15:46.455Z,6.42
2019-03-08T07:18:13.268Z,6.42
2019-03-08T07:21:02.368Z,6.52
2019-03-08T07:23:47.138Z,6.48
2019-03-08T07:26:23.357Z,6.56
2019-03-08T07:29:18.808Z,6.58
2019-03-08T07:31:58.013Z,6.58
2019-03-08T07:34:37.340Z,6.59
2019-03-08T07:37:41.501Z,6.65
2019-03-08T07:40:22.541Z,6.61
2019-03-08T07:42:55.480Z,6.66
2019-03-08T07:45:36.295Z,6.65
2019-03-08T07:48:31.788Z,6.78
2019-03-08T07:51:09.111Z,6.88
2019-03-08T07:53:51.393Z,6.88
2019-03-08T07:56:26.809Z,6.82
2019-03-08T07:59:15.875Z,6.79
2019-03-08T08:02:02.177Z,6.79
2019-03-08T08:04:48.439Z,6.82
2019-03-08T08:07:28.037Z,6.85
2019-03-08T08:10:00.960Z,7.01
2019-03-08T08:12:34.838Z,7.42
2019-03-08T08:15:06.911Z,7.74
2019-03-08T08:17:48.200Z,7.43
2019-03-08T08:20:29.275Z,7.33
2019-03-08T08:23:07.973Z,7.31
2019-03-08T08:25:43.012Z,7.35
2019-03-08T08:28:26.432Z,7.26
2019-03-08T08:31:11.579Z,7.13
2019-03-08T08:33:49.813Z,7.34
2019-03-08T08:36:23.738Z,7.14
2019-03-08T08:39:04.898Z,7.23
2019-03-08T08:41:56.886Z,7.32
2019-03-08T08:44:43.310Z,7.11
2019-03-08T08:47:35.313Z,6.99
2019-03-08T08:50:14.206Z,7.02
2019-03-08T08:53:00.683Z,7.07
2019-03-08T08:55:43.672Z,7.23
2019-03-08T08:58:28.728Z,7.24
2019-03-08T09:01:13.657Z,7.38
2019-03-08T09:03:52.369Z,7.41
2019-03-08T09:06:36.437Z,7.28
2019-03-08T09:09:13.611Z,7.27
2019-03-08T09:11:52.325Z,7.51
2019-03-08T09:14:18.252Z,7.28
2019-03-08T09:17:03.559Z,7.26
2019-03-08T09:19:48.794Z,8.05
2019-03-08T09:22:32.650Z,8.06
2019-03-08T09:25:05.421Z,7.60
2019-03-08T09:27:51.937Z,8.26
2019-03-08T09:30:56.690Z,8.78
2019-03-08T09:33:36.710Z,8.98
2019-03-08T09:36:11.652Z,7.99
2019-03-08T09:38:50.307Z,9.12
2019-03-08T09:41:54.841Z,9.38
2019-03-08T09:44:31.061Z,8.91
2019-03-08T09:47:19.810Z,8.94
2019-03-08T09:49:55.136Z,8.71
2019-03-08T09:52:33.780Z,8.19
2019-03-08T09:55:21.196Z,8.06
2019-03-08T09:57:55.245Z,8.16
2019-03-08T10:00:40.744Z,8.07
2019-03-08T10:03:25.773Z,7.89
2019-03-08T10:06:24.572Z,7.66
2019-03-08T10:09:06.550Z,7.41
2019-03-08T10:12:01.956Z,6.49
2019-03-08T10:14:40.268Z,6.22
2019-03-08T10:17:26.558Z,6.13
2019-03-08T10:20:28.011Z,6.00
2019-03-08T10:23:19.688Z,5.86
2019-03-08T10:26:00.180Z,6.05
2019-03-08T10:28:50.908Z,6.28
2019-03-08T10:31:28.504Z,6.54
2019-03-08T10:34:15.440Z,6.80
2019-03-08T10:37:10.342Z,8.06
2019-03-08T10:39:45.246Z,9.26
2019-03-08T10:42:30.180Z,8.06
2019-03-08T10:45:16.459Z,7.92
2019-03-08T10:48:02.836Z,7.86
2019-03-08T10:50:54.697Z,8.15
2019-03-08T10:53:42.587Z,8.85
2019-03-08T10:56:34.757Z,8.04
2019-03-08T10:59:13.014Z,7.89
2019-03-08T11:01:53.640Z,8.00
2019-03-08T11:04:27.528Z,8.08
2019-03-08T11:07:17.592Z,8.72
2019-03-08T11:10:12.523Z,9.81
2019-03-08T11:12:53.670Z,9.53
2019-03-08T11:15:38.674Z,11.63
2019-03-08T11:18:17.678Z,11.84
2019-03-08T11:21:02.891Z,11.74
2019-03-08T11:23:40.834Z,10.44
2019-03-08T11:26:26.645Z,10.14
2019-03-08T11:29:04.666Z,10.10
2019-03-08T11:32:03.347Z,10.08
2019-03-08T11:34:40.303Z,10.24
2019-03-08T11:37:15.033Z,10.27
2019-03-08T11:39:53.685Z,10.63
2019-03-08T11:42:30.078Z,9.80
2019-03-08T11:45:04.446Z,9.14
2019-03-08T11:47:50.341Z,9.05
2019-03-08T11:50:35.601Z,9.27
2019-03-08T11:53:20.557Z,9.02
2019-03-08T11:55:55.259Z,8.88
2019-03-08T11:58:44.482Z,8.58
2019-03-08T12:01:20.300Z,8.56
2019-03-08T12:04:05.380Z,8.53
2019-03-08T12:07:10.492Z,8.45
2019-03-08T12:09:42.479Z,8.32
2019-03-08T12:12:28.882Z,8.34
2019-03-08T12:15:21.062Z,8.05
2019-03-08T12:17:58.217Z,8.03
2019-03-08T12:20:33.326Z,8.08
2019-03-08T12:23:12.474Z,8.07
2019-03-08T12:26:08.234Z,8.00
2019-03-08T12:29:00.364Z,7.93
2019-03-08T12:31:38.520Z,7.83
2019-03-08T12:34:23.443Z,7.66
2019-03-08T12:37:24.937Z,7.67
2019-03-08T12:40:18.132Z,7.58
2019-03-08T12:43:08.065Z,7.67
2019-03-08T12:45:43.637Z,7.97
2019-03-08T12:48:39.103Z,9.42
2019-03-08T12:51:28.619Z,11.27
2019-03-08T12:54:13.245Z,11.08
2019-03-08T12:56:58.769Z,10.15
2019-03-08T12:59:43.723Z,9.15
2019-03-08T13:02:24.723Z,10.01
2019-03-08T13:05:04.190Z,9.59
2019-03-08T13:07:56.284Z,9.76
2019-03-08T13:10:23.178Z,10.75
2019-03-08T13:12:49.829Z,9.56
2019-03-08T13:15:16.619Z,9.44
2019-03-08T13:17:43.244Z,10.84
2019-03-08T13:20:13.157Z,10.08
2019-03-08T13:22:39.913Z,9.50
2019-03-08T13:25:06.764Z,9.35
2019-03-08T13:27:33.609Z,9.20
2019-03-08T13:30:00.356Z,9.26
2019-03-08T13:32:27.020Z,9.17
2019-03-08T13:34:53.659Z,9.02
2019-03-08T13:37:20.303Z,9.34
2019-03-08T13:39:46.924Z,9.10
2019-03-08T13:42:13.868Z,9.25
2019-03-08T13:44:40.483Z,10.15
2019-03-08T13:47:07.318Z,12.20
2019-03-08T13:49:34.056Z,13.21
2019-03-08T13:52:00.770Z,13.27
2019-03-08T13:54:27.388Z,13.05
2019-03-08T13:56:54.401Z,13.98
2019-03-08T13:59:21.003Z,11.72
2019-03-08T14:01:47.663Z,11.06
2019-03-08T14:04:14.567Z,10.26
2019-03-08T14:06:41.278Z,9.86
2019-03-08T14:09:08.108Z,9.64
2019-03-08T14:11:34.832Z,9.48
2019-03-08T14:14:01.559Z,9.48
2019-03-08T14:16:28.215Z,9.37
2019-03-08T14:18:54.838Z,9.24
2019-03-08T14:21:21.669Z,9.23
2019-03-08T14:23:48.368Z,9.71
2019-03-08T14:26:14.975Z,9.84
2019-03-08T14:28:41.599Z,9.71
2019-03-08T14:31:16.505Z,9.41
2019-03-08T14:33:43.141Z,9.49
2019-03-08T14:36:10.065Z,9.41
2019-03-08T14:38:37.346Z,9.45
2019-03-08T14:41:36.458Z,10.09
2019-03-08T14:44:26.358Z,9.96
2019-03-08T14:47:07.793Z,9.87
2019-03-08T14:49:34.442Z,9.55
2019-03-08T14:52:01.163Z,9.62
2019-03-08T14:54:27.779Z,9.62
2019-03-08T14:56:54.393Z,9.30
2019-03-08T14:59:21.134Z,9.46
2019-03-08T15:01:47.732Z,9.59
2019-03-08T15:04:14.340Z,9.58
2019-03-08T15:06:41.157Z,10.30
2019-03-08T15:09:10.891Z,10.42
2019-03-08T15:11:37.482Z,10.00
2019-03-08T15:14:04.268Z,9.79
2019-03-08T15:16:30.890Z,10.51
2019-03-08T15:18:57.501Z,10.95
2019-03-08T15:21:24.206Z,10.71
2019-03-08T15:23:54.150Z,10.30
2019-03-08T15:26:19.373Z,9.89
2019-03-08T15:28:46.092Z,9.64
2019-03-08T15:31:12.928Z,9.48
2019-03-08T15:33:39.619Z,9.32
2019-03-08T15:36:06.327Z,9.47
2019-03-08T15:38:32.903Z,9.49
2019-03-08T15:40:59.635Z,9.32
2019-03-08T15:43:26.255Z,9.10
2019-03-08T15:45:53.006Z,8.96
2019-03-08T15:48:19.717Z,9.02
2019-03-08T15:50:47.842Z,9.03
2019-03-08T15:53:14.771Z,8.92
2019-03-08T15:55:41.679Z,9.05
2019-03-08T15:58:08.441Z,8.97
2019-03-08T16:00:35.242Z,8.97
2019-03-08T16:03:01.936Z,8.89
2019-03-08T16:05:30.092Z,8.94
2019-03-08T16:07:57.693Z,8.92
2019-03-08T16:10:25.621Z,8.94
2019-03-08T16:12:52.434Z,8.95
2019-03-08T16:15:19.277Z,8.97
2019-03-08T16:17:46.075Z,8.97
2019-03-08T16:20:13.531Z,9.12
2019-03-08T16:22:40.340Z,9.12
2019-03-08T16:25:08.353Z,9.06
2019-03-08T16:27:35.201Z,9.09
2019-03-08T16:30:02.970Z,9.17
2019-03-08T16:32:37.080Z,9.09
2019-03-08T16:35:04.615Z,9.11
2019-03-08T16:37:40.580Z,9.10
2019-03-08T16:40:29.762Z,9.08
2019-03-08T16:43:18.796Z,9.03
2019-03-08T16:46:05.127Z,9.06
2019-03-08T16:48:40.365Z,8.91
2019-03-08T16:51:30.329Z,9.07
2019-03-08T16:54:07.651Z,8.84
2019-03-08T16:56:44.633Z,9.01
2019-03-08T16:59:32.979Z,9.07
2019-03-08T17:02:28.315Z,9.06
2019-03-08T17:05:17.252Z,8.90
2019-03-08T17:07:59.139Z,8.80
2019-03-08T17:10:43.195Z,8.89
2019-03-08T17:13:21.333Z,9.03
2019-03-08T17:16:25.812Z,9.04
2019-03-08T17:19:12.100Z,8.91
2019-03-08T17:21:58.686Z,8.99
2019-03-08T17:24:40.714Z,8.80
2019-03-08T17:27:15.863Z,8.93
2019-03-08T17:29:50.796Z,8.90
2019-03-08T17:32:34.226Z,8.82
2019-03-08T17:35:27.887Z,8.87
2019-03-08T17:38:08.867Z,8.73
2019-03-08T17:40:43.427Z,8.77
2019-03-08T17:43:25.485Z,8.77
2019-03-08T17:46:14.921Z,8.75
2019-03-08T17:48:59.376Z,8.72
2019-03-08T17:51:45.476Z,8.79
2019-03-08T17:54:19.004Z,8.57
2019-03-08T17:56:56.536Z,8.53
2019-03-08T17:59:41.422Z,8.49
2019-03-08T18:02:15.169Z,8.60
2019-03-08T18:04:54.034Z,8.57
2019-03-08T18:07:33.434Z,8.58
2019-03-08T18:10:10.338Z,8.58
2019-03-08T18:12:54.999Z,8.56
2019-03-08T18:15:29.089Z,8.59
2019-03-08T18:18:03.868Z,8.66
2019-03-08T18:20:55.933Z,8.61
2019-03-08T18:23:38.544Z,8.62
2019-03-08T18:26:19.248Z,8.67
2019-03-08T18:28:59.882Z,8.61
2019-03-08T18:31:44.627Z,8.62
2019-03-08T18:34:33.776Z,8.69
2019-03-08T18:37:20.043Z,8.68
2019-03-08T18:39:54.379Z,8.66
2019-03-08T18:42:35.112Z,8.62
2019-03-08T18:45:18.164Z,8.63
2019-03-08T18:48:03.233Z,8.64
2019-03-08T18:50:45.500Z,8.58
2019-03-08T18:53:37.916Z,8.58
2019-03-08T18:56:16.996Z,8.57
2019-03-08T18:59:18.364Z,8.56
2019-03-08T19:02:07.664Z,8.48
2019-03-08T19:04:52.379Z,8.38
2019-03-08T19:07:38.663Z,8.26
2019-03-08T19:10:43.584Z,8.15
2019-03-08T19:13:32.590Z,8.14
2019-03-08T19:16:17.737Z,8.07
2019-03-08T19:18:51.543Z,8.09
2019-03-08T19:21:44.037Z,8.12
2019-03-08T19:24:28.988Z,8.15
2019-03-08T19:27:22.521Z,8.09
2019-03-08T19:30:07.461Z,8.10
2019-03-08T19:32:41.183Z,8.06
2019-03-08T19:35:25.112Z,8.03
2019-03-08T19:38:26.745Z,8.08
2019-03-08T19:40:59.776Z,8.05
2019-03-08T19:43:38.996Z,8.00
2019-03-08T19:46:43.480Z,8.08
2019-03-08T19:49:35.698Z,8.02
2019-03-08T19:52:11.729Z,8.02
2019-03-08T19:54:58.222Z,8.07
2019-03-08T19:57:47.248Z,8.04
2019-03-08T20:00:32.763Z,8.06
2019-03-08T20:03:09.544Z,8.04
2019-03-08T20:05:58.407Z,8.05
2019-03-08T20:08:41.730Z,8.00
2019-03-08T20:11:17.481Z,7.99
2019-03-08T20:13:57.681Z,7.99
2019-03-08T20:16:44.052Z,7.99
2019-03-08T20:19:17.235Z,8.01
2019-03-08T20:22:08.250Z,8.04
2019-03-08T20:24:44.393Z,7.98
2019-03-08T20:27:22.461Z,7.95
2019-03-08T20:30:04.219Z,8.01
2019-03-08T20:32:49.279Z,8.06
2019-03-08T20:35:41.899Z,7.98
2019-03-08T20:38:21.892Z,8.06
2019-03-08T20:40:57.309Z,8.11
2019-03-08T20:43:44.735Z,8.10
2019-03-08T20:46:22.429Z,8.08
2019-03-08T20:48:49.084Z,8.04
2019-03-08T20:51:15.762Z,8.11
2019-03-08T20:53:42.487Z,8.07
2019-03-08T20:56:09.524Z,8.05
2019-03-08T20:58:36.206Z,8.09
2019-03-08T21:01:03.221Z,8.07
2019-03-08T21:03:30.062Z,8.06
2019-03-08T21:05:56.903Z,8.10
2019-03-08T21:08:23.628Z,8.10
2019-03-08T21:10:50.441Z,8.11
2019-03-08T21:13:17.102Z,8.12
2019-03-08T21:15:43.857Z,8.10
2019-03-08T21:18:10.486Z,8.09
2019-03-08T21:20:37.112Z,8.09
2019-03-08T21:23:03.989Z,8.10
2019-03-08T21:25:30.619Z,8.06
2019-03-08T21:27:57.385Z,8.06
2019-03-08T21:30:24.265Z,8.08
2019-03-08T21:32:50.986Z,8.07
2019-03-08T21:35:21.923Z,8.09
2019-03-08T21:37:49.106Z,8.11
2019-03-08T21:40:16.254Z,8.12
2019-03-08T21:42:43.071Z,8.13
2019-03-08T21:45:11.107Z,8.11
2019-03-08T21:47:41.068Z,8.12
2019-03-08T21:50:10.531Z,8.19
2019-03-08T21:52:37.596Z,8.14
2019-03-08T21:55:05.760Z,8.17
2019-03-08T21:57:32.685Z,8.19
2019-03-08T21:59:59.640Z,8.15
2019-03-08T22:02:26.608Z,8.19
2019-03-08T22:04:58.898Z,8.17
2019-03-08T22:07:26.346Z,8.13
2019-03-08T22:10:17.152Z,8.10
2019-03-08T22:12:44.541Z,8.06
2019-03-08T22:15:11.490Z,8.12
2019-03-08T22:17:38.393Z,8.10
2019-03-08T22:20:08.038Z,8.03
2019-03-08T22:22:35.022Z,7.98
2019-03-08T22:25:02.972Z,8.00
2019-03-08T22:27:30.234Z,8.03
2019-03-08T22:29:57.969Z,8.02
2019-03-08T22:32:25.122Z,8.03
2019-03-08T22:34:52.064Z,8.08
2019-03-08T22:37:19.460Z,8.08
2019-03-08T22:39:47.588Z,8.08
2019-03-08T22:42:15.001Z,8.10
2019-03-08T22:44:41.862Z,8.13
2019-03-08T22:47:08.469Z,8.16
2019-03-08T22:49:35.845Z,8.16
2019-03-08T22:52:03.276Z,8.16
2019-03-08T22:54:31.771Z,8.12
2019-03-08T22:56:58.833Z,8.04
2019-03-08T22:59:25.946Z,7.95
2019-03-08T23:01:54.424Z,7.89
2019-03-08T23:04:21.258Z,7.88
2019-03-08T23:06:48.665Z,7.81
2019-03-08T23:09:15.732Z,7.77
2019-03-08T23:11:42.837Z,7.64
2019-03-08T23:14:09.897Z,7.63
2019-03-08T23:16:36.999Z,7.57
2019-03-08T23:19:03.836Z,7.59
2019-03-08T23:21:30.451Z,7.53
2019-03-08T23:23:57.097Z,7.46
2019-03-08T23:26:24.215Z,7.48
2019-03-08T23:29:05.550Z,7.41
2019-03-08T23:31:38.384Z,7.38
2019-03-08T23:34:05.101Z,7.33
2019-03-08T23:36:31.714Z,7.25
2019-03-08T23:38:58.862Z,7.19
2019-03-08T23:41:25.474Z,7.15
2019-03-08T23:43:52.955Z,7.14
2019-03-08T23:46:23.138Z,7.21
2019-03-08T23:48:50.211Z,7.21
2019-03-08T23:51:16.825Z,7.14
2019-03-08T23:53:43.575Z,7.23
2019-03-08T23:56:10.416Z,7.19
2019-03-08T23:58:37.021Z,7.28
